sensor_id;sensor_type;location;lat;lon;timestamp;pressure;altitude;pressure_sealevel;temperature;humidity
31044;BME280;17710;52.520;13.352;2024-03-29T00:00:48;99465.75;;;11.80;61.87
31044;BME280;17710;52.520;13.352;2024-03-29T00:03:13;99468.78;;;12.03;61.53
31044;BME280;17710;52.520;13.352;2024-03-29T00:05:39;99482.00;;;11.88;62.32
31044;BME280;17710;52.520;13.352;2024-03-29T00:08:05;99481.34;;;12.27;61.05
31044;BME280;17710;52.520;13.352;2024-03-29T00:10:30;99487.09;;;12.34;60.55
31044;BME280;17710;52.520;13.352;2024-03-29T00:12:57;99486.44;;;12.59;59.82
31044;BME280;17710;52.520;13.352;2024-03-29T00:15:22;99492.31;;;12.21;60.76
31044;BME280;17710;52.520;13.352;2024-03-29T00:17:47;99500.25;;;12.21;60.96
31044;BME280;17710;52.520;13.352;2024-03-29T00:20:13;99498.47;;;12.36;60.44
31044;BME280;17710;52.520;13.352;2024-03-29T00:22:39;99495.00;;;12.07;61.60
31044;BME280;17710;52.520;13.352;2024-03-29T00:25:04;99498.75;;;12.03;60.92
31044;BME280;17710;52.520;13.352;2024-03-29T00:27:30;99512.47;;;12.24;60.81
31044;BME280;17710;52.520;13.352;2024-03-29T00:29:57;99505.47;;;12.51;59.13
31044;BME280;17710;52.520;13.352;2024-03-29T00:32:22;99510.72;;;13.06;57.74
31044;BME280;17710;52.520;13.352;2024-03-29T00:34:49;99522.50;;;13.02;56.96
31044;BME280;17710;52.520;13.352;2024-03-29T00:37:14;99512.72;;;12.62;57.64
31044;BME280;17710;52.520;13.352;2024-03-29T00:39:40;99518.88;;;12.48;58.67
31044;BME280;17710;52.520;13.352;2024-03-29T00:42:05;99525.97;;;12.76;58.02
31044;BME280;17710;52.520;13.352;2024-03-29T00:44:31;99538.97;;;12.93;57.41
31044;BME280;17710;52.520;13.352;2024-03-29T00:46:59;99537.53;;;12.04;60.63
31044;BME280;17710;52.520;13.352;2024-03-29T00:49:24;99541.63;;;12.38;60.99
31044;BME280;17710;52.520;13.352;2024-03-29T00:51:49;99540.09;;;12.62;61.01
31044;BME280;17710;52.520;13.352;2024-03-29T00:54:15;99539.03;;;12.79;60.97
31044;BME280;17710;52.520;13.352;2024-03-29T00:56:40;99543.41;;;12.66;61.90
31044;BME280;17710;52.520;13.352;2024-03-29T00:59:05;99543.03;;;12.72;62.39
31044;BME280;17710;52.520;13.352;2024-03-29T01:01:31;99542.59;;;12.92;62.33
31044;BME280;17710;52.520;13.352;2024-03-29T01:03:57;99529.03;;;12.97;62.72
31044;BME280;17710;52.520;13.352;2024-03-29T01:06:23;99528.31;;;12.81;63.60
31044;BME280;17710;52.520;13.352;2024-03-29T01:08:48;99524.91;;;12.93;63.51
31044;BME280;17710;52.520;13.352;2024-03-29T01:11:13;99528.19;;;12.96;63.58
31044;BME280;17710;52.520;13.352;2024-03-29T01:13:39;99527.44;;;12.94;63.37
31044;BME280;17710;52.520;13.352;2024-03-29T01:16:04;99534.81;;;13.03;63.27
31044;BME280;17710;52.520;13.352;2024-03-29T01:18:30;99530.06;;;12.94;63.30
31044;BME280;17710;52.520;13.352;2024-03-29T01:20:56;99543.59;;;12.63;64.89
31044;BME280;17710;52.520;13.352;2024-03-29T01:23:22;99536.94;;;12.70;64.97
31044;BME280;17710;52.520;13.352;2024-03-29T01:25:47;99538.97;;;12.66;65.12
31044;BME280;17710;52.520;13.352;2024-03-29T01:28:12;99532.59;;;12.55;65.86
31044;BME280;17710;52.520;13.352;2024-03-29T01:30:38;99535.63;;;12.63;65.36
31044;BME280;17710;52.520;13.352;2024-03-29T01:33:03;99535.94;;;12.58;65.69
31044;BME280;17710;52.520;13.352;2024-03-29T01:35:29;99538.66;;;12.57;65.98
31044;BME280;17710;52.520;13.352;2024-03-29T01:37:55;99530.34;;;12.34;66.79
31044;BME280;17710;52.520;13.352;2024-03-29T01:40:21;99539.81;;;12.38;66.74
31044;BME280;17710;52.520;13.352;2024-03-29T01:42:46;99533.19;;;12.46;66.59
31044;BME280;17710;52.520;13.352;2024-03-29T01:45:11;99541.41;;;12.41;66.32
31044;BME280;17710;52.520;13.352;2024-03-29T01:47:38;99546.22;;;12.34;66.72
31044;BME280;17710;52.520;13.352;2024-03-29T01:50:04;99544.66;;;12.46;66.33
31044;BME280;17710;52.520;13.352;2024-03-29T01:52:31;99533.50;;;12.27;66.97
31044;BME280;17710;52.520;13.352;2024-03-29T01:54:59;99540.94;;;12.34;66.85
31044;BME280;17710;52.520;13.352;2024-03-29T01:57:25;99548.72;;;12.37;66.62
31044;BME280;17710;52.520;13.352;2024-03-29T01:59:52;99544.19;;;12.40;66.23
31044;BME280;17710;52.520;13.352;2024-03-29T02:02:18;99547.69;;;12.40;65.98
31044;BME280;17710;52.520;13.352;2024-03-29T02:04:44;99551.91;;;12.28;66.24
31044;BME280;17710;52.520;13.352;2024-03-29T02:07:11;99548.13;;;12.18;66.67
31044;BME280;17710;52.520;13.352;2024-03-29T02:09:38;99548.97;;;12.05;66.94
31044;BME280;17710;52.520;13.352;2024-03-29T02:12:06;99547.19;;;12.05;66.86
31044;BME280;17710;52.520;13.352;2024-03-29T02:14:32;99554.53;;;12.14;66.49
31044;BME280;17710;52.520;13.352;2024-03-29T02:16:59;99560.91;;;12.12;66.05
31044;BME280;17710;52.520;13.352;2024-03-29T02:19:25;99552.84;;;11.99;66.08
31044;BME280;17710;52.520;13.352;2024-03-29T02:21:51;99556.59;;;11.95;65.86
31044;BME280;17710;52.520;13.352;2024-03-29T02:24:23;99557.00;;;12.03;65.44
31044;BME280;17710;52.520;13.352;2024-03-29T02:26:49;99556.34;;;12.00;65.33
31044;BME280;17710;52.520;13.352;2024-03-29T02:29:16;99551.69;;;12.03;65.15
31044;BME280;17710;52.520;13.352;2024-03-29T02:31:42;99563.53;;;12.12;64.41
31044;BME280;17710;52.520;13.352;2024-03-29T02:34:08;99564.41;;;12.12;64.13
31044;BME280;17710;52.520;13.352;2024-03-29T02:36:35;99566.38;;;12.09;64.14
31044;BME280;17710;52.520;13.352;2024-03-29T02:39:03;99570.75;;;12.24;63.62
31044;BME280;17710;52.520;13.352;2024-03-29T02:41:30;99570.25;;;12.17;63.37
31044;BME280;17710;52.520;13.352;2024-03-29T02:43:57;99567.47;;;11.90;64.00
31044;BME280;17710;52.520;13.352;2024-03-29T02:46:23;99576.84;;;11.96;64.27
31044;BME280;17710;52.520;13.352;2024-03-29T02:48:50;99575.13;;;11.95;63.94
31044;BME280;17710;52.520;13.352;2024-03-29T02:51:15;99577.13;;;11.91;63.90
31044;BME280;17710;52.520;13.352;2024-03-29T02:53:41;99575.84;;;11.83;64.27
31044;BME280;17710;52.520;13.352;2024-03-29T02:56:06;99577.69;;;11.96;63.94
31044;BME280;17710;52.520;13.352;2024-03-29T02:58:34;99568.53;;;11.88;63.96
31044;BME280;17710;52.520;13.352;2024-03-29T03:01:04;99567.53;;;11.75;64.41
31044;BME280;17710;52.520;13.352;2024-03-29T03:03:30;99574.44;;;11.77;64.26
31044;BME280;17710;52.520;13.352;2024-03-29T03:05:56;99583.41;;;11.59;64.54
31044;BME280;17710;52.520;13.352;2024-03-29T03:08:22;99593.16;;;11.74;64.11
31044;BME280;17710;52.520;13.352;2024-03-29T03:11:06;99592.97;;;11.62;64.48
31044;BME280;17710;52.520;13.352;2024-03-29T03:13:32;99599.38;;;11.57;64.36
31044;BME280;17710;52.520;13.352;2024-03-29T03:16:00;99603.22;;;11.68;64.02
31044;BME280;17710;52.520;13.352;2024-03-29T03:18:26;99603.59;;;11.46;64.53
31044;BME280;17710;52.520;13.352;2024-03-29T03:20:51;99599.47;;;11.56;64.22
31044;BME280;17710;52.520;13.352;2024-03-29T03:23:18;99600.50;;;11.53;64.24
31044;BME280;17710;52.520;13.352;2024-03-29T03:25:43;99591.78;;;11.67;63.73
31044;BME280;17710;52.520;13.352;2024-03-29T03:28:10;99596.88;;;11.86;63.03
31044;BME280;17710;52.520;13.352;2024-03-29T03:30:37;99612.09;;;11.96;62.41
31044;BME280;17710;52.520;13.352;2024-03-29T03:33:05;99621.47;;;11.72;62.57
31044;BME280;17710;52.520;13.352;2024-03-29T03:35:31;99615.84;;;11.78;62.74
31044;BME280;17710;52.520;13.352;2024-03-29T03:37:57;99614.31;;;11.58;62.92
31044;BME280;17710;52.520;13.352;2024-03-29T03:40:23;99608.78;;;11.32;63.78
31044;BME280;17710;52.520;13.352;2024-03-29T03:42:49;99618.31;;;11.50;62.63
31044;BME280;17710;52.520;13.352;2024-03-29T03:45:15;99621.16;;;11.47;63.09
31044;BME280;17710;52.520;13.352;2024-03-29T03:47:41;99621.81;;;11.66;62.01
31044;BME280;17710;52.520;13.352;2024-03-29T03:50:08;99616.19;;;11.56;62.56
31044;BME280;17710;52.520;13.352;2024-03-29T03:52:35;99608.66;;;11.65;61.88
31044;BME280;17710;52.520;13.352;2024-03-29T03:55:00;99611.16;;;11.68;61.50
31044;BME280;17710;52.520;13.352;2024-03-29T03:57:26;99602.00;;;11.73;61.39
31044;BME280;17710;52.520;13.352;2024-03-29T03:59:52;99585.50;;;11.84;60.99
31044;BME280;17710;52.520;13.352;2024-03-29T04:02:18;99580.06;;;11.87;60.83
31044;BME280;17710;52.520;13.352;2024-03-29T04:04:46;99589.78;;;11.86;60.75
31044;BME280;17710;52.520;13.352;2024-03-29T04:07:14;99585.94;;;11.76;61.22
31044;BME280;17710;52.520;13.352;2024-03-29T04:09:39;99588.34;;;11.81;61.21
31044;BME280;17710;52.520;13.352;2024-03-29T04:12:05;99591.75;;;11.83;61.23
31044;BME280;17710;52.520;13.352;2024-03-29T04:14:31;99597.22;;;11.80;60.95
31044;BME280;17710;52.520;13.352;2024-03-29T04:16:57;99603.97;;;11.85;61.14
31044;BME280;17710;52.520;13.352;2024-03-29T04:19:22;99599.31;;;11.75;61.54
31044;BME280;17710;52.520;13.352;2024-03-29T04:21:49;99583.22;;;11.78;61.27
31044;BME280;17710;52.520;13.352;2024-03-29T04:24:15;99605.91;;;11.82;60.83
31044;BME280;17710;52.520;13.352;2024-03-29T04:26:41;99591.84;;;11.66;60.96
31044;BME280;17710;52.520;13.352;2024-03-29T04:29:09;99595.44;;;11.65;60.89
31044;BME280;17710;52.520;13.352;2024-03-29T04:31:35;99603.72;;;11.58;61.06
31044;BME280;17710;52.520;13.352;2024-03-29T04:34:00;99604.66;;;11.73;60.41
31044;BME280;17710;52.520;13.352;2024-03-29T04:36:27;99592.13;;;11.61;60.76
31044;BME280;17710;52.520;13.352;2024-03-29T04:38:52;99594.28;;;11.54;60.82
31044;BME280;17710;52.520;13.352;2024-03-29T04:41:20;99590.28;;;11.47;61.03
31044;BME280;17710;52.520;13.352;2024-03-29T04:43:46;99599.66;;;11.53;61.00
31044;BME280;17710;52.520;13.352;2024-03-29T04:46:13;99596.66;;;11.43;61.17
31044;BME280;17710;52.520;13.352;2024-03-29T04:48:40;99589.41;;;11.47;60.93
31044;BME280;17710;52.520;13.352;2024-03-29T04:51:07;99591.28;;;11.61;60.37
31044;BME280;17710;52.520;13.352;2024-03-29T04:53:34;99581.91;;;11.55;60.29
31044;BME280;17710;52.520;13.352;2024-03-29T04:56:01;99588.88;;;11.56;60.19
31044;BME280;17710;52.520;13.352;2024-03-29T04:58:28;99598.00;;;11.66;59.73
31044;BME280;17710;52.520;13.352;2024-03-29T05:00:55;99594.50;;;11.66;60.06
31044;BME280;17710;52.520;13.352;2024-03-29T05:03:21;99586.19;;;11.72;59.70
31044;BME280;17710;52.520;13.352;2024-03-29T05:05:50;99575.69;;;11.70;59.35
31044;BME280;17710;52.520;13.352;2024-03-29T05:08:17;99582.97;;;11.67;59.44
31044;BME280;17710;52.520;13.352;2024-03-29T05:10:44;99609.09;;;11.57;59.82
31044;BME280;17710;52.520;13.352;2024-03-29T05:13:11;99604.44;;;11.46;59.87
31044;BME280;17710;52.520;13.352;2024-03-29T05:15:39;99598.09;;;11.65;59.66
31044;BME280;17710;52.520;13.352;2024-03-29T05:18:05;99606.09;;;11.79;58.74
31044;BME280;17710;52.520;13.352;2024-03-29T05:20:31;99606.50;;;11.71;59.04
31044;BME280;17710;52.520;13.352;2024-03-29T05:22:58;99601.81;;;11.92;58.41
31044;BME280;17710;52.520;13.352;2024-03-29T05:25:24;99607.25;;;11.89;57.93
31044;BME280;17710;52.520;13.352;2024-03-29T05:27:50;99612.38;;;11.92;58.20
31044;BME280;17710;52.520;13.352;2024-03-29T05:30:16;99617.31;;;11.98;57.85
31044;BME280;17710;52.520;13.352;2024-03-29T05:32:44;99619.75;;;11.87;57.97
31044;BME280;17710;52.520;13.352;2024-03-29T05:35:10;99627.09;;;11.82;57.93
31044;BME280;17710;52.520;13.352;2024-03-29T05:37:38;99619.81;;;12.01;57.68
31044;BME280;17710;52.520;13.352;2024-03-29T05:40:05;99614.97;;;11.78;57.74
31044;BME280;17710;52.520;13.352;2024-03-29T05:42:32;99596.88;;;11.86;57.85
31044;BME280;17710;52.520;13.352;2024-03-29T05:45:00;99589.56;;;12.19;56.99
31044;BME280;17710;52.520;13.352;2024-03-29T05:47:26;99594.88;;;12.19;56.66
31044;BME280;17710;52.520;13.352;2024-03-29T05:49:54;99599.72;;;11.97;56.78
31044;BME280;17710;52.520;13.352;2024-03-29T05:52:20;99595.84;;;12.03;56.70
31044;BME280;17710;52.520;13.352;2024-03-29T05:54:48;99596.13;;;11.98;57.09
31044;BME280;17710;52.520;13.352;2024-03-29T05:57:14;99612.69;;;12.02;57.10
31044;BME280;17710;52.520;13.352;2024-03-29T05:59:41;99608.84;;;12.07;56.70
31044;BME280;17710;52.520;13.352;2024-03-29T06:02:07;99617.47;;;12.25;56.29
31044;BME280;17710;52.520;13.352;2024-03-29T06:04:33;99616.72;;;12.37;55.82
31044;BME280;17710;52.520;13.352;2024-03-29T06:07:02;99611.69;;;12.18;55.90
31044;BME280;17710;52.520;13.352;2024-03-29T06:09:29;99624.75;;;12.21;56.01
31044;BME280;17710;52.520;13.352;2024-03-29T06:11:55;99621.84;;;12.26;56.06
31044;BME280;17710;52.520;13.352;2024-03-29T06:14:22;99625.63;;;12.36;56.27
31044;BME280;17710;52.520;13.352;2024-03-29T06:17:05;99640.50;;;12.53;55.10
31044;BME280;17710;52.520;13.352;2024-03-29T06:19:49;99637.75;;;12.68;54.36
31044;BME280;17710;52.520;13.352;2024-03-29T06:22:17;99635.09;;;12.68;53.80
31044;BME280;17710;52.520;13.352;2024-03-29T06:24:43;99639.00;;;12.77;53.79
31044;BME280;17710;52.520;13.352;2024-03-29T06:27:09;99641.25;;;12.83;53.32
31044;BME280;17710;52.520;13.352;2024-03-29T06:29:35;99657.00;;;12.86;53.21
31044;BME280;17710;52.520;13.352;2024-03-29T06:32:02;99651.41;;;13.05;52.42
31044;BME280;17710;52.520;13.352;2024-03-29T06:34:29;99651.78;;;13.13;52.32
31044;BME280;17710;52.520;13.352;2024-03-29T06:36:56;99655.66;;;13.22;52.21
31044;BME280;17710;52.520;13.352;2024-03-29T06:39:23;99650.25;;;13.23;51.57
31044;BME280;17710;52.520;13.352;2024-03-29T06:41:51;99657.53;;;13.20;51.62
31044;BME280;17710;52.520;13.352;2024-03-29T06:44:17;99655.28;;;13.13;51.73
31044;BME280;17710;52.520;13.352;2024-03-29T06:46:43;99653.75;;;13.24;51.00
31044;BME280;17710;52.520;13.352;2024-03-29T06:49:09;99660.44;;;13.43;50.28
31044;BME280;17710;52.520;13.352;2024-03-29T06:51:36;99680.03;;;13.55;50.01
31044;BME280;17710;52.520;13.352;2024-03-29T06:54:02;99684.19;;;13.59;49.86
31044;BME280;17710;52.520;13.352;2024-03-29T06:56:30;99677.50;;;13.80;49.38
31044;BME280;17710;52.520;13.352;2024-03-29T06:58:56;99675.94;;;13.90;48.68
31044;BME280;17710;52.520;13.352;2024-03-29T07:01:22;99696.88;;;13.95;48.82
31044;BME280;17710;52.520;13.352;2024-03-29T07:03:48;99692.69;;;14.18;48.42
31044;BME280;17710;52.520;13.352;2024-03-29T07:06:15;99690.25;;;14.15;48.42
31044;BME280;17710;52.520;13.352;2024-03-29T07:08:41;99671.19;;;13.95;47.84
31044;BME280;17710;52.520;13.352;2024-03-29T07:11:07;99673.56;;;13.86;48.43
31044;BME280;17710;52.520;13.352;2024-03-29T07:13:36;99670.75;;;14.02;48.08
31044;BME280;17710;52.520;13.352;2024-03-29T07:16:03;99699.81;;;14.17;47.96
31044;BME280;17710;52.520;13.352;2024-03-29T07:18:29;99692.09;;;14.00;48.33
31044;BME280;17710;52.520;13.352;2024-03-29T07:20:55;99712.09;;;14.06;48.58
31044;BME280;17710;52.520;13.352;2024-03-29T07:23:21;99714.63;;;13.94;47.92
31044;BME280;17710;52.520;13.352;2024-03-29T07:25:57;99737.22;;;14.14;47.47
31044;BME280;17710;52.520;13.352;2024-03-29T07:28:24;99730.50;;;14.09;47.70
31044;BME280;17710;52.520;13.352;2024-03-29T07:30:52;99734.81;;;14.24;47.23
31044;BME280;17710;52.520;13.352;2024-03-29T07:33:19;99726.63;;;14.27;47.08
31044;BME280;17710;52.520;13.352;2024-03-29T07:35:46;99726.13;;;14.08;47.27
31044;BME280;17710;52.520;13.352;2024-03-29T07:38:12;99726.84;;;14.24;46.87
31044;BME280;17710;52.520;13.352;2024-03-29T07:40:40;99735.25;;;14.30;46.17
31044;BME280;17710;52.520;13.352;2024-03-29T07:43:06;99746.63;;;14.32;46.30
31044;BME280;17710;52.520;13.352;2024-03-29T07:45:32;99745.53;;;14.22;46.63
31044;BME280;17710;52.520;13.352;2024-03-29T07:48:00;99735.81;;;14.09;46.64
31044;BME280;17710;52.520;13.352;2024-03-29T07:50:26;99733.28;;;14.20;46.77
31044;BME280;17710;52.520;13.352;2024-03-29T07:52:52;99743.28;;;14.43;46.32
31044;BME280;17710;52.520;13.352;2024-03-29T07:55:19;99739.22;;;14.11;46.59
31044;BME280;17710;52.520;13.352;2024-03-29T07:57:45;99742.91;;;14.35;46.32
31044;BME280;17710;52.520;13.352;2024-03-29T08:00:13;99747.94;;;14.40;46.28
31044;BME280;17710;52.520;13.352;2024-03-29T08:02:39;99753.25;;;14.40;46.55
31044;BME280;17710;52.520;13.352;2024-03-29T08:05:07;99763.69;;;14.43;46.13
31044;BME280;17710;52.520;13.352;2024-03-29T08:07:33;99769.72;;;14.18;46.79
31044;BME280;17710;52.520;13.352;2024-03-29T08:09:59;99775.63;;;14.23;46.67
31044;BME280;17710;52.520;13.352;2024-03-29T08:12:26;99769.88;;;13.75;48.38
31044;BME280;17710;52.520;13.352;2024-03-29T08:14:52;99778.53;;;13.91;48.68
31044;BME280;17710;52.520;13.352;2024-03-29T08:17:18;99762.91;;;14.14;48.47
31044;BME280;17710;52.520;13.352;2024-03-29T08:19:47;99756.22;;;14.08;49.21
31044;BME280;17710;52.520;13.352;2024-03-29T08:22:15;99758.56;;;14.40;49.21
31044;BME280;17710;52.520;13.352;2024-03-29T08:24:42;99767.25;;;14.68;48.22
31044;BME280;17710;52.520;13.352;2024-03-29T08:27:09;99758.22;;;14.71;49.33
31044;BME280;17710;52.520;13.352;2024-03-29T08:29:35;99743.13;;;15.22;49.19
31044;BME280;17710;52.520;13.352;2024-03-29T08:32:02;99732.88;;;15.41;47.92
31044;BME280;17710;52.520;13.352;2024-03-29T08:34:28;99712.09;;;15.46;47.46
31044;BME280;17710;52.520;13.352;2024-03-29T08:36:59;99721.13;;;15.69;47.45
31044;BME280;17710;52.520;13.352;2024-03-29T08:39:27;99700.44;;;15.97;48.07
31044;BME280;17710;52.520;13.352;2024-03-29T08:41:53;99704.75;;;16.10;47.68
31044;BME280;17710;52.520;13.352;2024-03-29T08:44:19;99696.84;;;16.32;45.69
31044;BME280;17710;52.520;13.352;2024-03-29T08:46:45;99711.56;;;16.49;46.15
31044;BME280;17710;52.520;13.352;2024-03-29T08:49:12;99717.06;;;16.59;45.29
31044;BME280;17710;52.520;13.352;2024-03-29T08:51:38;99730.72;;;16.78;45.31
31044;BME280;17710;52.520;13.352;2024-03-29T08:54:04;99722.09;;;16.74;44.61
31044;BME280;17710;52.520;13.352;2024-03-29T08:56:32;99719.56;;;16.95;44.85
31044;BME280;17710;52.520;13.352;2024-03-29T08:58:59;99716.94;;;17.18;44.38
31044;BME280;17710;52.520;13.352;2024-03-29T09:01:28;99720.44;;;16.96;44.49
31044;BME280;17710;52.520;13.352;2024-03-29T09:03:54;99714.16;;;17.30;43.13
31044;BME280;17710;52.520;13.352;2024-03-29T09:06:20;99723.59;;;17.34;43.62
31044;BME280;17710;52.520;13.352;2024-03-29T09:08:46;99729.28;;;17.74;42.38
31044;BME280;17710;52.520;13.352;2024-03-29T09:11:13;99729.28;;;17.74;41.70
31044;BME280;17710;52.520;13.352;2024-03-29T09:13:40;99735.53;;;17.64;41.53
31044;BME280;17710;52.520;13.352;2024-03-29T09:16:06;99736.31;;;17.53;42.21
31044;BME280;17710;52.520;13.352;2024-03-29T09:18:33;99733.19;;;17.37;41.94
31044;BME280;17710;52.520;13.352;2024-03-29T09:20:59;99727.13;;;17.35;41.76
31044;BME280;17710;52.520;13.352;2024-03-29T09:23:26;99731.25;;;17.50;41.41
31044;BME280;17710;52.520;13.352;2024-03-29T09:25:53;99736.31;;;17.53;41.10
31044;BME280;17710;52.520;13.352;2024-03-29T09:28:20;99737.69;;;17.47;41.46
31044;BME280;17710;52.520;13.352;2024-03-29T09:30:48;99744.84;;;17.47;41.93
31044;BME280;17710;52.520;13.352;2024-03-29T09:33:14;99751.63;;;17.40;42.15
31044;BME280;17710;52.520;13.352;2024-03-29T09:35:40;99747.66;;;17.68;42.08
31044;BME280;17710;52.520;13.352;2024-03-29T09:38:07;99741.69;;;17.31;41.20
31044;BME280;17710;52.520;13.352;2024-03-29T09:40:33;99756.50;;;17.57;40.93
31044;BME280;17710;52.520;13.352;2024-03-29T09:43:00;99762.91;;;17.88;40.63
31044;BME280;17710;52.520;13.352;2024-03-29T09:45:28;99759.78;;;17.61;40.75
31044;BME280;17710;52.520;13.352;2024-03-29T09:47:56;99753.97;;;17.67;40.55
31044;BME280;17710;52.520;13.352;2024-03-29T09:50:23;99753.69;;;17.47;40.39
31044;BME280;17710;52.520;13.352;2024-03-29T09:52:50;99749.56;;;17.66;40.63
31044;BME280;17710;52.520;13.352;2024-03-29T09:55:16;99747.28;;;17.61;39.38
31044;BME280;17710;52.520;13.352;2024-03-29T09:57:45;99744.84;;;17.47;39.57
31044;BME280;17710;52.520;13.352;2024-03-29T10:00:12;99758.31;;;17.34;39.69
31044;BME280;17710;52.520;13.352;2024-03-29T10:02:38;99751.38;;;17.21;40.10
31044;BME280;17710;52.520;13.352;2024-03-29T10:05:08;99741.69;;;17.31;39.94
31044;BME280;17710;52.520;13.352;2024-03-29T10:07:34;99754.41;;;17.16;40.96
31044;BME280;17710;52.520;13.352;2024-03-29T10:10:01;99743.31;;;16.87;41.33
31044;BME280;17710;52.520;13.352;2024-03-29T10:12:28;99732.28;;;16.81;41.31
31044;BME280;17710;52.520;13.352;2024-03-29T10:14:55;99739.75;;;16.99;41.71
31044;BME280;17710;52.520;13.352;2024-03-29T10:17:30;99736.81;;;16.91;41.94
31044;BME280;17710;52.520;13.352;2024-03-29T10:19:58;99739.75;;;17.10;43.13
31044;BME280;17710;52.520;13.352;2024-03-29T10:22:26;99715.69;;;16.77;43.73
31044;BME280;17710;52.520;13.352;2024-03-29T10:24:52;99703.28;;;16.65;45.03
31044;BME280;17710;52.520;13.352;2024-03-29T10:27:19;99702.13;;;16.56;45.14
31044;BME280;17710;52.520;13.352;2024-03-29T10:29:45;99709.47;;;16.42;46.24
31044;BME280;17710;52.520;13.352;2024-03-29T10:32:11;99708.31;;;16.57;46.39
31044;BME280;17710;52.520;13.352;2024-03-29T10:34:37;99706.81;;;16.65;46.75
31044;BME280;17710;52.520;13.352;2024-03-29T10:37:04;99698.56;;;16.33;47.71
31044;BME280;17710;52.520;13.352;2024-03-29T10:39:31;99710.00;;;16.47;47.60
31044;BME280;17710;52.520;13.352;2024-03-29T10:41:59;99709.38;;;16.78;47.71
31044;BME280;17710;52.520;13.352;2024-03-29T10:44:26;99704.31;;;16.51;47.75
31044;BME280;17710;52.520;13.352;2024-03-29T10:46:52;99704.50;;;16.37;48.82
31044;BME280;17710;52.520;13.352;2024-03-29T10:49:19;99698.81;;;16.65;48.61
31044;BME280;17710;52.520;13.352;2024-03-29T10:51:46;99696.84;;;16.67;49.34
31044;BME280;17710;52.520;13.352;2024-03-29T10:54:13;99697.25;;;17.07;48.54
31044;BME280;17710;52.520;13.352;2024-03-29T10:56:41;99702.84;;;17.04;49.83
31044;BME280;17710;52.520;13.352;2024-03-29T10:59:12;99693.63;;;17.31;48.33
31044;BME280;17710;52.520;13.352;2024-03-29T11:01:38;99693.13;;;17.48;48.66
31044;BME280;17710;52.520;13.352;2024-03-29T11:04:08;99686.44;;;17.53;48.66
31044;BME280;17710;52.520;13.352;2024-03-29T11:06:37;99683.31;;;17.37;48.69
31044;BME280;17710;52.520;13.352;2024-03-29T11:09:06;99676.13;;;17.49;48.46
31044;BME280;17710;52.520;13.352;2024-03-29T11:11:36;99662.28;;;17.66;48.11
31044;BME280;17710;52.520;13.352;2024-03-29T11:14:06;99663.22;;;17.76;48.31
31044;BME280;17710;52.520;13.352;2024-03-29T11:16:33;99652.44;;;17.99;47.70
31044;BME280;17710;52.520;13.352;2024-03-29T11:19:00;99659.50;;;18.00;46.67
31044;BME280;17710;52.520;13.352;2024-03-29T11:21:30;99647.88;;;17.89;46.39
31044;BME280;17710;52.520;13.352;2024-03-29T11:23:57;99656.69;;;17.47;47.41
31044;BME280;17710;52.520;13.352;2024-03-29T11:26:26;99636.81;;;17.40;48.20
31044;BME280;17710;52.520;13.352;2024-03-29T11:28:53;99630.06;;;17.25;48.00
31044;BME280;17710;52.520;13.352;2024-03-29T11:31:23;99619.69;;;17.42;48.35
31044;BME280;17710;52.520;13.352;2024-03-29T11:33:50;99626.25;;;17.92;47.01
31044;BME280;17710;52.520;13.352;2024-03-29T11:36:17;99620.03;;;17.92;46.87
31044;BME280;17710;52.520;13.352;2024-03-29T11:38:44;99628.78;;;17.51;47.40
31044;BME280;17710;52.520;13.352;2024-03-29T11:41:11;99630.38;;;17.42;47.65
31044;BME280;17710;52.520;13.352;2024-03-29T11:43:38;99627.22;;;17.48;47.14
31044;BME280;17710;52.520;13.352;2024-03-29T11:46:05;99621.78;;;17.39;47.54
31044;BME280;17710;52.520;13.352;2024-03-29T11:48:33;99618.03;;;17.30;47.86
31044;BME280;17710;52.520;13.352;2024-03-29T11:51:01;99616.03;;;17.54;47.71
31044;BME280;17710;52.520;13.352;2024-03-29T11:53:28;99624.41;;;17.61;47.17
31044;BME280;17710;52.520;13.352;2024-03-29T11:55:54;99627.25;;;17.80;46.54
31044;BME280;17710;52.520;13.352;2024-03-29T11:58:20;99630.34;;;17.53;47.12
31044;BME280;17710;52.520;13.352;2024-03-29T12:00:47;99646.63;;;17.50;47.80
31044;BME280;17710;52.520;13.352;2024-03-29T12:03:13;99638.78;;;17.38;48.97
31044;BME280;17710;52.520;13.352;2024-03-29T12:05:42;99626.28;;;17.16;49.22
31044;BME280;17710;52.520;13.352;2024-03-29T12:08:08;99644.03;;;17.06;49.35
31044;BME280;17710;52.520;13.352;2024-03-29T12:10:36;99646.06;;;17.02;49.00
31044;BME280;17710;52.520;13.352;2024-03-29T12:13:02;99641.84;;;17.00;50.72
31044;BME280;17710;52.520;13.352;2024-03-29T12:15:34;99639.28;;;16.76;50.69
31044;BME280;17710;52.520;13.352;2024-03-29T12:18:04;99649.34;;;17.17;50.82
31044;BME280;17710;52.520;13.352;2024-03-29T12:20:30;99635.16;;;17.17;50.72
31044;BME280;17710;52.520;13.352;2024-03-29T12:22:59;99634.06;;;17.19;50.91
31044;BME280;17710;52.520;13.352;2024-03-29T12:25:27;99632.50;;;16.83;50.65
31044;BME280;17710;52.520;13.352;2024-03-29T12:27:53;99628.72;;;17.19;50.53
31044;BME280;17710;52.520;13.352;2024-03-29T12:30:20;99615.47;;;17.29;50.06
31044;BME280;17710;52.520;13.352;2024-03-29T12:32:47;99595.59;;;17.22;49.86
31044;BME280;17710;52.520;13.352;2024-03-29T12:35:14;99586.84;;;17.74;48.22
31044;BME280;17710;52.520;13.352;2024-03-29T12:37:47;99586.97;;;18.04;46.51
31044;BME280;17710;52.520;13.352;2024-03-29T12:40:15;99575.91;;;18.39;44.92
31044;BME280;17710;52.520;13.352;2024-03-29T12:42:43;99579.50;;;18.70;43.39
31044;BME280;17710;52.520;13.352;2024-03-29T12:45:09;99581.53;;;18.87;42.47
31044;BME280;17710;52.520;13.352;2024-03-29T12:47:36;99579.28;;;19.32;42.15